Time;durP1;ratioP1;P1;durP2;ratioP2;P2;SDS_P1;SDS_P2;PMS_P1;PMS_P2;Temp;Humidity;BMP_temperature;BMP_pressure;BME280_temperature;BME280_humidity;BME280_pressure;Samples;Min_cycle;Max_cycle;Signal;HPM_P1;HPM_P2
2022/01/30 00:01:05;;;;;;;24.27;20.17;;;;;;;;;;12618546;28;20028;-74
2022/01/30 00:07:07;;;;;;;31.73;28.27;;;;;;;;;;12601038;28;20040;-74
2022/01/30 00:13:13;;;;;;;31.77;28.38;;;;;;;;;;12617233;28;20037;-74
2022/01/30 00:19:28;;;;;;;35.70;29.63;;;;;;;;;;12600525;28;20047;-74
2022/01/30 00:25:43;;;;;;;33.72;27.35;;;;;;;;;;12599816;28;20049;-74
2022/01/30 00:31:45;;;;;;;37.42;32.72;;;;;;;;;;12599782;28;20485;-74
2022/01/30 00:37:48;;;;;;;39.25;33.30;;;;;;;;;;12588819;28;20029;-74
2022/01/30 00:43:51;;;;;;;35.75;30.77;;;;;;;;;;12565783;28;20028;-74
2022/01/30 00:49:53;;;;;;;38.17;27.92;;;;;;;;;;12565624;28;20040;-75
2022/01/30 00:55:55;;;;;;;30.63;26.38;;;;;;;;;;12566138;28;20040;-74
2022/01/30 01:01:57;;;;;;;;;;;;;;;;;;12565941;28;20405;-74
2022/01/30 01:08:07;;;;;;;34.33;26.60;;;;;;;;;;12564373;28;19923;-74
2022/01/30 01:26:49;;;;;;;37.05;25.65;;;;;;;;;;12579970;28;20067;-74
2022/01/30 01:32:51;;;;;;;37.28;30.90;;;;;;;;;;12580411;28;20393;-74
2022/01/30 01:38:53;;;;;;;34.67;30.13;;;;;;;;;;12563376;28;20051;-74
2022/01/30 05:16:11;;;;;;;42.30;37.85;;;;;;;;;;12703693;27;20932;-74
2022/01/30 05:22:36;;;;;;;34.22;26.58;;;;;;;;;;12654355;28;20389;-74
2022/01/30 05:29:04;;;;;;;39.90;27.73;;;;;;;;;;12669333;28;20480;-74
2022/01/30 05:35:32;;;;;;;33.08;22.48;;;;;;;;;;12656978;28;20539;-74
2022/01/30 05:41:51;;;;;;;49.70;28.33;;;;;;;;;;12668721;28;20036;-74
2022/01/30 05:48:15;;;;;;;35.10;24.52;;;;;;;;;;12670660;28;20035;-74
2022/01/30 05:54:29;;;;;;;37.30;23.20;;;;;;;;;;12669355;28;20046;-74
2022/01/30 06:00:31;;;;;;;37.57;19.80;;;;;;;;;;12667357;28;20031;-73
2022/01/30 06:06:35;;;;;;;33.47;20.48;;;;;;;;;;12667209;28;20031;-74
2022/01/30 06:12:38;;;;;;;37.95;24.20;;;;;;;;;;12666099;28;20060;-74
2022/01/30 06:18:40;;;;;;;34.70;23.15;;;;;;;;;;12666603;28;20032;-74
2022/01/30 06:24:44;;;;;;;42.08;28.75;;;;;;;;;;12649181;28;20032;-74
2022/01/30 06:30:57;;;;;;;49.42;30.58;;;;;;;;;;12632247;28;20051;-74
2022/01/30 06:37:17;;;;;;;32.15;20.60;;;;;;;;;;12634612;28;20043;-74
2022/01/30 06:43:32;;;;;;;31.55;20.23;;;;;;;;;;12632761;28;20473;-74
2022/01/30 06:49:53;;;;;;;38.47;24.85;;;;;;;;;;12649599;28;20028;-74
2022/01/30 06:56:26;;;;;;;28.23;18.45;;;;;;;;;;12624162;28;20048;-74
2022/01/30 07:02:54;;;;;;;27.35;16.40;;;;;;;;;;12627299;28;20047;-74
2022/01/30 07:09:14;;;;;;;33.85;18.40;;;;;;;;;;12630812;28;20036;-74
2022/01/30 07:15:16;;;;;;;31.70;19.55;;;;;;;;;;12629901;28;20056;-74
2022/01/30 07:21:18;;;;;;;68.13;30.00;;;;;;;;;;12631126;28;20047;-74
2022/01/30 07:27:20;;;;;;;27.87;17.33;;;;;;;;;;12613226;28;20114;-74
2022/01/30 07:33:22;;;;;;;28.98;19.05;;;;;;;;;;12629412;28;20040;-74
2022/01/30 07:39:30;;;;;;;31.70;20.88;;;;;;;;;;12628494;28;20393;-74
2022/01/30 07:45:31;;;;;;;29.90;17.38;;;;;;;;;;12629610;28;20063;-74
2022/01/30 07:51:33;;;;;;;26.85;18.45;;;;;;;;;;12628598;28;20044;-74
2022/01/30 07:57:35;;;;;;;20.27;13.52;;;;;;;;;;12628639;28;20024;-74
2022/01/30 08:03:37;;;;;;;25.60;18.35;;;;;;;;;;12627879;28;20035;-73
2022/01/30 08:09:39;;;;;;;28.70;20.00;;;;;;;;;;12627727;28;20047;-74
2022/01/30 08:21:56;;;;;;;30.48;21.10;;;;;;;;;;12738947;27;20466;-74
2022/01/30 08:27:58;;;;;;;27.45;21.35;;;;;;;;;;12719976;28;20027;-74
2022/01/30 08:34:00;;;;;;;24.10;20.17;;;;;;;;;;12719780;28;20181;-74
2022/01/30 08:45:55;;;;;;;20.83;17.85;;;;;;;;;;12700693;27;20372;-74
2022/01/30 08:51:57;;;;;;;18.83;16.53;;;;;;;;;;12652341;28;20028;-74
2022/01/30 09:01:36;;;;;;;19.40;16.58;;;;;;;;;;12738669;27;20493;-74
2022/01/30 09:07:38;;;;;;;26.55;22.27;;;;;;;;;;12720024;28;20392;-74
2022/01/30 09:13:40;;;;;;;22.20;18.63;;;;;;;;;;12719895;28;20034;-74
2022/01/30 09:19:43;;;;;;;21.20;16.20;;;;;;;;;;12719753;28;20035;-74
2022/01/30 09:25:46;;;;;;;21.88;19.35;;;;;;;;;;12720125;28;20034;-74
2022/01/30 09:31:48;;;;;;;25.02;19.15;;;;;;;;;;12736299;27;20042;-74
2022/01/30 09:37:50;;;;;;;21.83;16.50;;;;;;;;;;12735709;27;20039;-74
2022/01/30 09:43:52;;;;;;;29.33;20.73;;;;;;;;;;12735624;27;20036;-74
2022/01/30 09:49:55;;;;;;;23.17;18.27;;;;;;;;;;12718406;28;20035;-74
2022/01/30 09:55:57;;;;;;;25.13;19.55;;;;;;;;;;12734631;28;20065;-74
2022/01/30 10:02:03;;;;;;;23.90;17.77;;;;;;;;;;12734514;27;20077;-74
2022/01/30 10:08:05;;;;;;;24.25;18.08;;;;;;;;;;12728034;28;20038;-74
2022/01/30 10:14:07;;;;;;;22.50;18.05;;;;;;;;;;12700346;28;20031;-75
2022/01/30 10:20:14;;;;;;;19.35;15.73;;;;;;;;;;12682919;28;20050;-74
2022/01/30 10:26:18;;;;;;;22.25;17.90;;;;;;;;;;12699609;28;20043;-74
2022/01/30 10:32:20;;;;;;;23.00;18.30;;;;;;;;;;12699237;28;20031;-74
2022/01/30 10:38:23;;;;;;;24.17;19.25;;;;;;;;;;12698538;28;20039;-74
2022/01/30 10:44:25;;;;;;;21.65;16.83;;;;;;;;;;12698859;28;20032;-74
2022/01/30 10:50:27;;;;;;;18.97;15.00;;;;;;;;;;12681501;28;20046;-74
2022/01/30 10:56:29;;;;;;;22.02;19.08;;;;;;;;;;12663974;28;20305;-74
2022/01/30 11:02:36;;;;;;;18.90;16.30;;;;;;;;;;12680341;28;20036;-74
2022/01/30 11:08:41;;;;;;;20.92;17.77;;;;;;;;;;12664049;28;20035;-74
2022/01/30 11:20:49;;;;;;;19.50;16.10;;;;;;;;;;12679162;28;20047;-74
2022/01/30 11:26:51;;;;;;;17.23;13.27;;;;;;;;;;12663083;28;20038;-75
2022/01/30 11:32:53;;;;;;;13.98;11.05;;;;;;;;;;12662701;28;20038;-75
2022/01/30 11:38:56;;;;;;;15.00;12.43;;;;;;;;;;12662114;28;20048;-74
2022/01/30 11:45:00;;;;;;;15.82;13.30;;;;;;;;;;12662022;28;20538;-74
2022/01/30 11:51:03;;;;;;;24.25;21.25;;;;;;;;;;12661632;28;20376;-75
2022/01/30 11:57:25;;;;;;;19.60;15.50;;;;;;;;;;12661372;28;20055;-74
2022/01/30 12:03:28;;;;;;;18.90;14.40;;;;;;;;;;12660727;28;20113;-74
2022/01/30 12:09:30;;;;;;;22.35;18.90;;;;;;;;;;12660887;28;20044;-74
2022/01/30 12:15:38;;;;;;;20.75;18.33;;;;;;;;;;12660777;28;20028;-74
2022/01/30 12:21:40;;;;;;;22.48;18.00;;;;;;;;;;12660371;28;20046;-75
2022/01/30 12:27:49;;;;;;;22.58;18.30;;;;;;;;;;12677799;28;20050;-75
2022/01/30 12:34:03;;;;;;;20.45;15.35;;;;;;;;;;12660637;28;20039;-75
2022/01/30 12:40:11;;;;;;;17.55;14.40;;;;;;;;;;12659399;28;20123;-75
2022/01/30 12:46:18;;;;;;;19.95;15.73;;;;;;;;;;12687434;28;20061;-75
2022/01/30 12:53:06;;;;;;;23.67;19.65;;;;;;;;;;12703378;28;20028;-75
2022/01/30 12:59:15;;;;;;;19.52;16.58;;;;;;;;;;12675651;28;20052;-75
2022/01/30 13:05:17;;;;;;;22.45;17.55;;;;;;;;;;12658824;28;20428;-75
2022/01/30 13:11:21;;;;;;;19.47;15.20;;;;;;;;;;12675777;28;20036;-75
2022/01/30 13:17:30;;;;;;;28.38;21.75;;;;;;;;;;12675382;28;20042;-74
2022/01/30 13:23:32;;;;;;;24.52;18.98;;;;;;;;;;12658439;28;20028;-74
2022/01/30 13:29:35;;;;;;;21.58;17.20;;;;;;;;;;12675834;28;20040;-75
2022/01/30 13:35:37;;;;;;;20.33;15.48;;;;;;;;;;12659171;28;20538;-75
2022/01/30 13:41:48;;;;;;;21.88;17.05;;;;;;;;;;12658575;28;20047;-74
2022/01/30 13:47:54;;;;;;;24.38;18.05;;;;;;;;;;12683656;28;20043;-75
2022/01/30 13:54:12;;;;;;;17.55;14.90;;;;;;;;;;12667890;28;20038;-75
2022/01/30 14:00:18;;;;;;;19.42;13.80;;;;;;;;;;12683942;28;20081;-74
2022/01/30 14:06:24;;;;;;;17.52;13.45;;;;;;;;;;12667455;28;20027;-74
2022/01/30 14:12:37;;;;;;;15.13;11.73;;;;;;;;;;12683781;28;20349;-74
2022/01/30 14:18:57;;;;;;;15.40;12.02;;;;;;;;;;12683870;28;20384;-74
2022/01/30 14:25:02;;;;;;;16.00;11.63;;;;;;;;;;12683282;28;20032;-74
2022/01/30 14:31:17;;;;;;;18.92;14.80;;;;;;;;;;12665060;28;20040;-73
2022/01/30 14:37:21;;;;;;;21.10;15.77;;;;;;;;;;12665702;28;20048;-74
2022/01/30 14:43:25;;;;;;;17.73;14.38;;;;;;;;;;12682883;28;20507;-74
2022/01/30 14:49:27;;;;;;;16.23;13.17;;;;;;;;;;12681708;28;20032;-75
2022/01/30 14:55:29;;;;;;;12.55;10.48;;;;;;;;;;12681239;28;20035;-74
2022/01/30 15:01:32;;;;;;;15.43;12.07;;;;;;;;;;12663959;28;20051;-74
2022/01/30 15:07:34;;;;;;;15.32;10.93;;;;;;;;;;12664696;28;20035;-74
2022/01/30 15:13:38;;;;;;;13.65;11.55;;;;;;;;;;12680734;28;20030;-75
2022/01/30 15:19:40;;;;;;;15.18;13.02;;;;;;;;;;12679763;28;20042;-74
2022/01/30 15:25:42;;;;;;;13.63;11.50;;;;;;;;;;12679582;28;20042;-74
2022/01/30 15:31:43;;;;;;;13.63;11.32;;;;;;;;;;12679364;28;20046;-74
2022/01/30 15:37:46;;;;;;;15.17;12.10;;;;;;;;;;12679159;28;20043;-75
2022/01/30 15:43:51;;;;;;;16.48;12.43;;;;;;;;;;12679144;28;20035;-75
2022/01/30 15:49:53;;;;;;;15.88;13.25;;;;;;;;;;12662275;28;20051;-74
2022/01/30 15:55:55;;;;;;;17.80;14.47;;;;;;;;;;12677957;28;20036;-76
2022/01/30 16:01:57;;;;;;;17.50;14.15;;;;;;;;;;12661659;28;20039;-74
2022/01/30 16:08:01;;;;;;;17.85;13.82;;;;;;;;;;12660585;28;20044;-75
2022/01/30 16:20:23;;;;;;;16.05;14.20;;;;;;;;;;12677374;28;20059;-74
2022/01/30 16:26:29;;;;;;;16.77;12.98;;;;;;;;;;12677499;28;20039;-75
2022/01/30 16:32:31;;;;;;;18.92;13.95;;;;;;;;;;12659956;28;20039;-74
2022/01/30 16:38:34;;;;;;;16.92;13.98;;;;;;;;;;12660049;28;20044;-75
2022/01/30 16:44:40;;;;;;;17.93;14.83;;;;;;;;;;12676612;28;20383;-75
2022/01/30 16:50:42;;;;;;;16.98;13.57;;;;;;;;;;12675987;28;20050;-76
2022/01/30 16:56:44;;;;;;;19.60;14.93;;;;;;;;;;12658928;28;20055;-74
2022/01/30 17:02:48;;;;;;;16.20;12.60;;;;;;;;;;12693076;28;20471;-74
2022/01/30 17:08:54;;;;;;;22.02;16.98;;;;;;;;;;12659137;28;20052;-74
2022/01/30 17:14:56;;;;;;;20.98;16.52;;;;;;;;;;12658821;28;20494;-74
2022/01/30 17:20:58;;;;;;;19.30;16.33;;;;;;;;;;12664544;28;20039;-74
2022/01/30 17:27:00;;;;;;;18.67;15.50;;;;;;;;;;12685725;28;20040;-74
2022/01/30 17:33:05;;;;;;;18.60;15.53;;;;;;;;;;12670875;28;20329;-75
2022/01/30 17:39:10;;;;;;;13.73;11.23;;;;;;;;;;12669159;28;20047;-75
2022/01/30 17:45:13;;;;;;;19.55;17.00;;;;;;;;;;12684620;28;20036;-74
2022/01/30 17:51:15;;;;;;;;;;;;;;;;;;12668672;28;20038;-75
2022/01/30 17:57:18;;;;;;;18.88;15.88;;;;;;;;;;12668052;28;19920;-75
2022/01/30 18:03:22;;;;;;;27.90;23.40;;;;;;;;;;12684106;28;20487;-73
2022/01/30 18:09:24;;;;;;;27.05;21.60;;;;;;;;;;12683561;28;20138;-75
2022/01/30 18:15:26;;;;;;;23.58;19.58;;;;;;;;;;12683593;28;20035;-74
2022/01/30 18:21:28;;;;;;;19.73;17.50;;;;;;;;;;12665756;28;20043;-74
2022/01/30 18:27:30;;;;;;;22.03;18.73;;;;;;;;;;12666795;28;20036;-75
2022/01/30 18:33:32;;;;;;;24.10;20.77;;;;;;;;;;12665210;28;20043;-75
2022/01/30 18:39:55;;;;;;;22.02;18.02;;;;;;;;;;12682437;28;20165;-75
2022/01/30 18:45:57;;;;;;;;;;;;;;;;;;12665968;28;20385;-74
2022/01/30 18:51:59;;;;;;;20.13;17.85;;;;;;;;;;12664853;28;19918;-75
2022/01/30 18:58:01;;;;;;;17.60;14.65;;;;;;;;;;12664062;28;20058;-75
2022/01/30 19:04:03;;;;;;;31.63;25.37;;;;;;;;;;12682148;28;20050;-74
2022/01/30 19:10:05;;;;;;;26.40;20.80;;;;;;;;;;12681196;28;20042;-74
2022/01/30 19:16:07;;;;;;;28.83;23.98;;;;;;;;;;12680150;28;20031;-74
2022/01/30 19:22:11;;;;;;;25.25;21.33;;;;;;;;;;12680117;28;20058;-74
2022/01/30 19:28:14;;;;;;;25.02;21.17;;;;;;;;;;12663936;28;20032;-74
2022/01/30 19:34:17;;;;;;;33.63;30.10;;;;;;;;;;12663175;28;20031;-74
2022/01/30 19:40:19;;;;;;;29.10;25.37;;;;;;;;;;12678541;28;20046;-74
2022/01/30 19:46:22;;;;;;;30.05;26.70;;;;;;;;;;12662071;28;20032;-74
2022/01/30 19:52:24;;;;;;;20.50;18.45;;;;;;;;;;12661253;28;20380;-73
2022/01/30 19:58:26;;;;;;;33.78;30.15;;;;;;;;;;12678053;28;20054;-73
2022/01/30 20:04:28;;;;;;;30.23;26.98;;;;;;;;;;12679141;28;20030;-74
2022/01/30 20:10:30;;;;;;;37.27;32.37;;;;;;;;;;12677647;28;20035;-74
2022/01/30 20:16:33;;;;;;;31.45;28.17;;;;;;;;;;12677835;28;20023;-74
2022/01/30 20:22:35;;;;;;;30.00;26.25;;;;;;;;;;12660485;28;20047;-74
2022/01/30 20:28:36;;;;;;;32.78;28.95;;;;;;;;;;12661200;28;20035;-73
2022/01/30 20:34:41;;;;;;;31.53;28.23;;;;;;;;;;12660346;28;20476;-74
2022/01/30 20:40:43;;;;;;;37.95;34.05;;;;;;;;;;12676905;28;20480;-74
2022/01/30 20:46:45;;;;;;;29.50;20.80;;;;;;;;;;12660671;28;20468;-74
2022/01/30 20:52:47;;;;;;;45.22;32.67;;;;;;;;;;12659608;28;20031;-74
2022/01/30 20:58:50;;;;;;;35.88;26.13;;;;;;;;;;12658762;28;20133;-74
2022/01/30 21:04:52;;;;;;;38.43;34.23;;;;;;;;;;12658742;28;20035;-73
2022/01/30 21:11:18;;;;;;;40.72;36.17;;;;;;;;;;12619667;27;20497;-73
2022/01/30 21:17:20;;;;;;;44.08;36.92;;;;;;;;;;12585312;28;20040;-74
2022/01/30 21:23:22;;;;;;;42.22;37.05;;;;;;;;;;12585451;28;20041;-74
2022/01/30 21:29:24;;;;;;;44.58;31.90;;;;;;;;;;12585279;28;20043;-74
2022/01/30 21:35:26;;;;;;;39.03;26.43;;;;;;;;;;12568558;28;20033;-74
2022/01/30 21:41:28;;;;;;;42.08;26.73;;;;;;;;;;12568507;28;20032;-74
2022/01/30 21:47:31;;;;;;;39.58;29.52;;;;;;;;;;12567770;28;20040;-74
2022/01/30 21:53:32;;;;;;;39.78;34.05;;;;;;;;;;12583626;28;20029;-74
2022/01/30 21:59:35;;;;;;;36.65;32.55;;;;;;;;;;12584352;28;20036;-73
2022/01/30 22:05:38;;;;;;;40.05;28.05;;;;;;;;;;12583083;28;20056;-74
2022/01/30 22:11:45;;;;;;;44.13;36.05;;;;;;;;;;12583369;28;20025;-74
2022/01/30 22:17:48;;;;;;;34.88;31.05;;;;;;;;;;12560681;28;20033;-74
2022/01/30 22:23:50;;;;;;;41.42;31.30;;;;;;;;;;12550055;28;20021;-74
2022/01/30 22:29:52;;;;;;;40.58;35.33;;;;;;;;;;12549746;28;20504;-73
2022/01/30 22:35:57;;;;;;;41.07;27.07;;;;;;;;;;12532835;28;20044;-74
2022/01/30 22:41:59;;;;;;;35.13;27.48;;;;;;;;;;12549462;28;20041;-74
2022/01/30 22:48:01;;;;;;;37.97;24.63;;;;;;;;;;12532756;28;20052;-74
2022/01/30 22:54:03;;;;;;;31.63;20.08;;;;;;;;;;12548933;28;20048;-74
2022/01/30 23:00:11;;;;;;;54.45;31.85;;;;;;;;;;12548941;28;20393;-74
2022/01/30 23:06:17;;;;;;;68.18;52.30;;;;;;;;;;12531352;28;20041;-74
2022/01/30 23:12:19;;;;;;;64.43;46.85;;;;;;;;;;12547676;28;20032;-74
2022/01/30 23:18:21;;;;;;;59.60;36.60;;;;;;;;;;12547437;28;20037;-74
2022/01/30 23:24:28;;;;;;;42.20;31.38;;;;;;;;;;12547246;28;20048;-74
2022/01/30 23:30:35;;;;;;;38.28;26.55;;;;;;;;;;12545482;28;20040;-74
2022/01/30 23:36:38;;;;;;;47.43;30.40;;;;;;;;;;12546945;28;20044;-74
2022/01/30 23:42:42;;;;;;;67.93;38.53;;;;;;;;;;12545971;28;20485;-74
2022/01/30 23:48:50;;;;;;;39.53;29.95;;;;;;;;;;12546037;28;20045;-74
2022/01/30 23:54:55;;;;;;;45.63;31.20;;;;;;;;;;12530620;28;20036;-74
